createdAt,value
2017-11-06T00:00:04.122Z,23.15
2017-11-06T00:02:34.205Z,22.30
2017-11-06T00:05:04.245Z,22.13
2017-11-06T00:07:32.289Z,24.17
2017-11-06T00:10:10.589Z,25.52
2017-11-06T00:12:40.545Z,24.00
2017-11-06T00:15:15.692Z,25.60
2017-11-06T00:17:43.725Z,24.98
2017-11-06T00:20:22.853Z,23.10
2017-11-06T00:22:50.857Z,23.52
2017-11-06T00:25:19.841Z,25.33
2017-11-06T00:28:00.236Z,23.33
2017-11-06T00:30:32.456Z,25.30
2017-11-06T00:33:03.801Z,24.50
2017-11-06T00:35:35.309Z,23.42
2017-11-06T00:38:16.435Z,22.58
2017-11-06T00:40:44.445Z,23.30
2017-11-06T00:43:16.982Z,24.00
2017-11-06T00:45:56.209Z,24.08
2017-11-06T00:48:25.269Z,23.25
2017-11-06T00:50:53.398Z,26.80
2017-11-06T00:53:21.437Z,24.58
2017-11-06T00:55:59.401Z,25.35
2017-11-06T00:58:33.700Z,26.37
2017-11-06T01:01:02.694Z,25.12
2017-11-06T01:03:31.702Z,25.42
2017-11-06T01:06:05.366Z,24.65
2017-11-06T01:08:35.413Z,25.40
2017-11-06T01:11:10.465Z,24.98
2017-11-06T01:13:42.164Z,26.95
2017-11-06T01:16:10.225Z,25.67
2017-11-06T01:18:41.905Z,27.83
2017-11-06T01:21:13.593Z,26.45
2017-11-06T01:23:42.408Z,25.23
2017-11-06T01:26:12.377Z,25.92
2017-11-06T01:28:44.341Z,27.25
2017-11-06T01:31:31.929Z,27.60
2017-11-06T01:34:03.813Z,25.98
2017-11-06T01:36:31.849Z,25.60
2017-11-06T01:39:13.981Z,27.33
2017-11-06T01:41:47.785Z,26.35
2017-11-06T01:44:15.845Z,25.90
2017-11-06T01:46:43.901Z,27.75
2017-11-06T01:49:33.578Z,25.67
2017-11-06T01:52:16.578Z,26.95
2017-11-06T01:54:49.056Z,27.40
2017-11-06T01:57:19.089Z,26.90
2017-11-06T01:59:47.856Z,25.52
2017-11-06T02:02:16.039Z,28.45
2017-11-06T02:04:56.397Z,25.37
2017-11-06T02:07:35.561Z,29.45
2017-11-06T02:10:10.389Z,27.50
2017-11-06T02:12:41.574Z,26.05
2017-11-06T02:15:12.402Z,26.25
2017-11-06T02:17:41.373Z,27.50
2017-11-06T02:20:10.201Z,28.55
2017-11-06T02:22:41.933Z,29.40
2017-11-06T02:25:18.525Z,28.45
2017-11-06T02:27:50.809Z,27.60
2017-11-06T02:30:19.581Z,28.08
2017-11-06T02:32:48.573Z,28.02
2017-11-06T02:35:26.049Z,28.20
2017-11-06T02:37:54.869Z,29.52
2017-11-06T02:40:24.877Z,28.10
2017-11-06T02:42:52.921Z,27.85
2017-11-06T02:45:23.709Z,27.35
2017-11-06T02:48:07.365Z,29.50
2017-11-06T02:50:37.404Z,28.10
2017-11-06T02:55:59.333Z,28.55
2017-11-06T02:58:29.428Z,29.75
2017-11-06T03:01:07.645Z,30.37
2017-11-06T03:03:39.773Z,30.62
2017-11-06T03:06:08.733Z,29.92
2017-11-06T03:08:41.541Z,30.85
2017-11-06T03:11:13.476Z,30.27
2017-11-06T03:13:42.396Z,29.80
2017-11-06T03:16:12.375Z,33.25
2017-11-06T03:18:42.125Z,29.98
2017-11-06T03:21:12.109Z,30.65
2017-11-06T03:23:40.929Z,30.77
2017-11-06T03:26:17.357Z,29.92
2017-11-06T03:28:56.177Z,30.83
2017-11-06T03:31:27.353Z,29.02
2017-11-06T03:33:55.396Z,31.55
2017-11-06T03:36:36.944Z,30.83
2017-11-06T03:39:04.977Z,31.52
2017-11-06T03:41:35.704Z,31.48
2017-11-06T03:44:11.633Z,31.33
2017-11-06T03:46:41.625Z,29.08
2017-11-06T03:49:16.045Z,30.95
2017-11-06T03:51:52.356Z,30.80
2017-11-06T03:54:22.204Z,29.77
2017-11-06T03:56:52.165Z,28.12
2017-11-06T03:59:21.149Z,29.67
2017-11-06T04:01:49.204Z,30.05
2017-11-06T04:04:20.881Z,28.85
2017-11-06T04:06:48.924Z,28.60
2017-11-06T04:09:25.292Z,30.10
2017-11-06T04:11:54.340Z,28.92
2017-11-06T04:14:24.320Z,27.85
2017-11-06T04:16:53.328Z,30.23
2017-11-06T04:19:21.416Z,30.55
2017-11-06T04:21:57.476Z,29.15
2017-11-06T04:24:26.515Z,29.12
2017-11-06T04:26:55.540Z,29.60
2017-11-06T04:29:24.511Z,28.77
2017-11-06T04:32:04.136Z,28.42
2017-11-06T04:34:32.168Z,26.80
2017-11-06T04:37:00.196Z,27.35
2017-11-06T04:39:30.269Z,27.55
2017-11-06T04:42:03.996Z,27.83
2017-11-06T04:44:32.040Z,28.27
2017-11-06T04:47:03.153Z,27.23
2017-11-06T04:49:31.948Z,26.87
2017-11-06T04:52:04.104Z,28.35
2017-11-06T04:54:40.644Z,27.35
2017-11-06T04:57:10.219Z,27.90
2017-11-06T04:59:41.415Z,25.90
2017-11-06T05:02:13.352Z,23.95
2017-11-06T05:04:47.871Z,24.42
2017-11-06T05:07:18.940Z,25.62
2017-11-06T05:09:49.682Z,26.85
2017-11-06T05:12:18.479Z,27.15
2017-11-06T05:14:46.503Z,26.83
2017-11-06T05:17:24.403Z,28.02
2017-11-06T05:19:59.319Z,25.88
2017-11-06T05:22:27.355Z,27.17
2017-11-06T05:24:57.375Z,24.02
2017-11-06T05:27:25.391Z,27.60
2017-11-06T05:30:04.143Z,26.08
2017-11-06T05:32:32.179Z,26.95
2017-11-06T05:35:00.257Z,25.20
2017-11-06T05:37:28.299Z,26.25
2017-11-06T05:39:57.327Z,24.50
2017-11-06T05:42:29.646Z,26.92
2017-11-06T05:45:01.047Z,26.27
2017-11-06T05:47:41.603Z,25.58
2017-11-06T05:50:09.623Z,24.60
2017-11-06T05:52:47.566Z,24.95
2017-11-06T05:55:18.950Z,27.50
2017-11-06T05:57:47.758Z,24.27
2017-11-06T06:00:16.706Z,25.30
2017-11-06T06:02:44.738Z,25.10
2017-11-06T06:05:13.794Z,26.50
2017-11-06T06:07:42.706Z,26.10
2017-11-06T06:10:11.654Z,26.67
2017-11-06T06:12:42.899Z,26.17
2017-11-06T06:15:10.924Z,26.15
2017-11-06T06:17:39.966Z,24.80
2017-11-06T06:20:26.642Z,25.83
2017-11-06T06:22:55.665Z,24.95
2017-11-06T06:25:30.487Z,26.55
2017-11-06T06:28:00.503Z,27.25
2017-11-06T06:30:41.958Z,26.20
2017-11-06T06:33:11.042Z,26.20
2017-11-06T06:35:40.071Z,27.20
2017-11-06T06:38:09.111Z,25.88
2017-11-06T06:40:37.149Z,26.80
2017-11-06T06:43:06.122Z,26.12
2017-11-06T06:45:35.147Z,24.80
2017-11-06T06:48:09.018Z,23.80
2017-11-06T06:50:37.046Z,25.80
2017-11-06T06:56:02.230Z,25.05
2017-11-06T06:58:52.722Z,24.40
2017-11-06T07:01:32.534Z,26.20
2017-11-06T07:04:03.282Z,25.60
2017-11-06T07:06:51.498Z,26.45
2017-11-06T07:09:30.952Z,25.10
2017-11-06T07:11:58.964Z,22.58
2017-11-06T07:14:28.775Z,24.45
2017-11-06T07:17:02.615Z,26.65
2017-11-06T07:19:31.650Z,25.33
2017-11-06T07:22:11.983Z,26.48
2017-11-06T07:24:40.017Z,28.95
2017-11-06T07:27:09.818Z,26.33
2017-11-06T07:29:43.482Z,27.13
2017-11-06T07:32:11.790Z,28.95
2017-11-06T07:34:43.034Z,28.85
2017-11-06T07:37:11.830Z,28.60
2017-11-06T07:39:40.618Z,28.23
2017-11-06T07:42:14.409Z,24.50
2017-11-06T07:44:45.903Z,28.85
2017-11-06T07:47:13.934Z,25.08
2017-11-06T07:49:50.138Z,24.70
2017-11-06T07:52:24.994Z,26.85
2017-11-06T07:54:53.022Z,27.13
2017-11-06T07:57:33.126Z,26.30
2017-11-06T08:00:09.058Z,26.05
2017-11-06T08:02:38.766Z,26.35
2017-11-06T08:05:08.714Z,23.55
2017-11-06T08:07:42.351Z,25.50
2017-11-06T08:10:15.058Z,23.60
2017-11-06T08:12:46.750Z,23.92
2017-11-06T08:15:15.216Z,25.25
2017-11-06T08:17:48.953Z,24.75
2017-11-06T08:20:16.957Z,24.37
2017-11-06T08:22:44.981Z,24.37
2017-11-06T08:25:13.042Z,24.90
2017-11-06T08:27:50.958Z,25.60
2017-11-06T08:30:23.733Z,24.83
2017-11-06T08:32:52.658Z,23.80
2017-11-06T08:35:34.162Z,25.05
2017-11-06T08:38:03.094Z,23.45
2017-11-06T08:40:31.118Z,24.55
2017-11-06T08:43:18.541Z,22.92
2017-11-06T08:46:03.601Z,25.10
2017-11-06T08:48:32.565Z,23.02
2017-11-06T08:51:02.349Z,22.08
2017-11-06T08:53:31.338Z,21.42
2017-11-06T08:56:14.590Z,20.02
2017-11-06T08:58:42.606Z,19.08
2017-11-06T09:01:14.770Z,19.60
2017-11-06T09:03:44.725Z,18.17
2017-11-06T09:06:32.326Z,17.95
2017-11-06T09:09:04.210Z,17.75
2017-11-06T09:11:40.669Z,17.55
2017-11-06T09:14:18.609Z,17.60
2017-11-06T09:16:47.429Z,17.40
2017-11-06T09:19:19.649Z,18.12
2017-11-06T09:21:51.510Z,16.92
2017-11-06T09:24:21.306Z,17.75
2017-11-06T09:26:56.841Z,18.12
2017-11-06T09:29:28.921Z,18.75
2017-11-06T09:32:03.633Z,15.75
2017-11-06T09:34:32.693Z,17.05
2017-11-06T09:37:00.721Z,15.18
2017-11-06T09:39:34.945Z,15.70
2017-11-06T09:42:09.205Z,15.38
2017-11-06T09:44:38.229Z,14.13
2017-11-06T09:47:13.441Z,13.75
2017-11-06T09:49:43.373Z,14.43
2017-11-06T09:52:15.609Z,14.00
2017-11-06T09:54:44.550Z,12.95
2017-11-06T09:57:12.580Z,12.32
2017-11-06T09:59:41.609Z,11.32
2017-11-06T10:02:21.041Z,10.82
2017-11-06T10:04:55.841Z,11.65
2017-11-06T10:07:27.228Z,11.65
2017-11-06T10:09:55.245Z,10.90
2017-11-06T10:12:25.161Z,11.70
2017-11-06T10:14:55.325Z,11.55
2017-11-06T10:17:29.132Z,10.30
2017-11-06T10:19:57.157Z,11.23
2017-11-06T10:22:28.242Z,11.82
2017-11-06T10:24:57.274Z,11.45
2017-11-06T10:27:26.189Z,11.80
2017-11-06T10:30:00.005Z,12.13
2017-11-06T10:32:33.078Z,12.40
2017-11-06T10:35:02.053Z,13.05
2017-11-06T10:37:40.601Z,11.40
2017-11-06T10:40:08.641Z,11.48
2017-11-06T10:42:41.398Z,12.32
2017-11-06T10:45:12.200Z,10.70
2017-11-06T10:47:40.239Z,11.25
2017-11-06T10:50:13.149Z,12.35
2017-11-06T10:55:35.964Z,11.38
2017-11-06T10:58:12.009Z,11.80
2017-11-06T11:00:41.016Z,11.85
2017-11-06T11:03:22.848Z,12.43
2017-11-06T11:06:07.792Z,12.32
2017-11-06T11:08:43.732Z,11.70
2017-11-06T11:11:18.092Z,10.80
2017-11-06T11:13:46.129Z,12.00
2017-11-06T11:16:15.077Z,12.52
2017-11-06T11:18:44.041Z,10.43
2017-11-06T11:21:14.025Z,12.60
2017-11-06T11:23:42.072Z,11.70
2017-11-06T11:26:14.348Z,11.55
2017-11-06T11:28:44.264Z,10.80
2017-11-06T11:31:14.052Z,12.40
2017-11-06T11:33:42.082Z,9.88
2017-11-06T11:36:12.144Z,11.45
2017-11-06T11:38:40.188Z,10.93
2017-11-06T11:41:09.256Z,10.10
2017-11-06T11:43:38.309Z,11.27
2017-11-06T11:46:07.112Z,10.60
2017-11-06T11:48:40.648Z,10.68
2017-11-06T11:51:08.696Z,10.88
2017-11-06T11:53:37.645Z,10.00
2017-11-06T11:56:18.188Z,11.05
2017-11-06T11:58:46.212Z,9.60
2017-11-06T12:01:19.392Z,8.30
2017-11-06T12:03:49.164Z,8.75
2017-11-06T12:06:17.192Z,9.43
2017-11-06T12:08:46.996Z,9.25
2017-11-06T12:11:15.947Z,9.13
2017-11-06T12:13:43.980Z,8.30
2017-11-06T12:16:12.112Z,8.27
2017-11-06T12:18:44.432Z,8.50
2017-11-06T12:21:12.451Z,9.55
2017-11-06T12:23:42.233Z,7.82
2017-11-06T12:26:10.248Z,9.60
2017-11-06T12:28:39.943Z,9.05
2017-11-06T12:31:09.377Z,11.00
2017-11-06T12:33:44.080Z,9.50
2017-11-06T12:36:15.307Z,10.88
2017-11-06T12:38:44.124Z,9.98
2017-11-06T12:41:14.091Z,9.00
2017-11-06T12:43:42.115Z,9.35
2017-11-06T12:46:12.171Z,9.48
2017-11-06T12:48:42.108Z,11.23
2017-11-06T12:51:10.904Z,8.90
2017-11-06T12:53:40.707Z,9.85
2017-11-06T12:56:15.189Z,9.10
2017-11-06T12:58:43.236Z,11.15
2017-11-06T13:01:12.171Z,11.45
2017-11-06T13:03:41.183Z,10.15
2017-11-06T13:06:13.436Z,9.60
2017-11-06T13:08:52.165Z,10.27
2017-11-06T13:11:21.091Z,10.23
2017-11-06T13:13:51.060Z,9.43
2017-11-06T13:16:19.086Z,9.38
2017-11-06T13:18:47.107Z,8.88
2017-11-06T13:21:15.119Z,9.40
2017-11-06T13:23:45.051Z,8.77
2017-11-06T13:26:33.895Z,7.20
2017-11-06T13:29:03.847Z,8.27
2017-11-06T13:31:38.344Z,8.65
2017-11-06T13:34:09.611Z,11.12
2017-11-06T13:36:37.631Z,8.95
2017-11-06T13:39:07.586Z,9.73
2017-11-06T13:41:37.503Z,9.70
2017-11-06T13:44:13.499Z,9.30
2017-11-06T13:46:43.283Z,9.88
2017-11-06T13:49:12.183Z,9.50
2017-11-06T13:51:44.671Z,10.35
2017-11-06T13:54:26.887Z,9.35
2017-11-06T13:56:54.931Z,9.32
2017-11-06T13:59:31.154Z,9.10
2017-11-06T14:01:59.191Z,8.85
2017-11-06T14:04:27.215Z,8.98
2017-11-06T14:06:55.235Z,8.40
2017-11-06T14:09:24.213Z,7.80
2017-11-06T14:11:58.399Z,8.70
2017-11-06T14:14:30.270Z,6.85
2017-11-06T14:17:01.932Z,8.73
2017-11-06T14:19:32.614Z,7.93
2017-11-06T14:22:01.675Z,8.52
2017-11-06T14:24:43.183Z,7.72
2017-11-06T14:27:16.406Z,7.68
2017-11-06T14:29:45.427Z,8.07
2017-11-06T14:32:27.407Z,9.88
2017-11-06T14:35:05.303Z,8.50
2017-11-06T14:37:35.311Z,8.45
2017-11-06T14:40:08.794Z,8.30
2017-11-06T14:42:39.771Z,8.55
2017-11-06T14:45:08.747Z,8.68
2017-11-06T14:47:40.139Z,8.10
2017-11-06T14:50:10.104Z,8.68
2017-11-06T14:52:38.134Z,7.03
2017-11-06T14:55:06.187Z,7.45
2017-11-06T14:57:58.448Z,7.78
2017-11-06T15:00:45.564Z,7.28
2017-11-06T15:03:14.483Z,8.35
2017-11-06T15:05:44.521Z,7.12
2017-11-06T15:08:13.438Z,7.32
2017-11-06T15:10:45.558Z,6.53
2017-11-06T15:13:13.598Z,7.57
2017-11-06T15:15:41.615Z,8.55
2017-11-06T15:18:09.630Z,7.82
2017-11-06T15:20:37.670Z,6.40
2017-11-06T15:23:09.103Z,6.18
2017-11-06T15:25:38.023Z,7.15
2017-11-06T15:28:12.994Z,7.07
2017-11-06T15:30:45.395Z,6.03
2017-11-06T15:33:23.154Z,7.25
2017-11-06T15:36:01.491Z,6.25
2017-11-06T15:38:29.510Z,6.72
2017-11-06T15:40:57.530Z,7.65
2017-11-06T15:43:30.007Z,6.80
2017-11-06T15:46:01.759Z,6.80
2017-11-06T15:48:36.318Z,7.68
2017-11-06T15:51:06.224Z,6.70
2017-11-06T15:53:43.955Z,6.35
2017-11-06T15:56:13.882Z,6.65
2017-11-06T15:58:41.918Z,7.00
2017-11-06T16:01:13.910Z,6.65
2017-11-06T16:03:45.607Z,7.40
2017-11-06T16:06:14.541Z,7.97
2017-11-06T16:08:42.566Z,8.25
2017-11-06T16:11:13.918Z,7.47
2017-11-06T16:13:49.531Z,9.15
2017-11-06T16:16:17.571Z,7.37
2017-11-06T16:18:46.354Z,10.43
2017-11-06T16:21:18.742Z,7.60
2017-11-06T16:23:46.771Z,10.88
2017-11-06T16:26:19.758Z,10.05
2017-11-06T16:28:48.692Z,8.18
2017-11-06T16:31:29.343Z,11.90
2017-11-06T16:36:51.714Z,9.60
2017-11-06T16:39:19.750Z,9.60
2017-11-06T16:41:58.947Z,9.88
2017-11-06T16:44:26.970Z,10.93
2017-11-06T16:46:55.002Z,10.00
2017-11-06T16:49:23.034Z,12.65
2017-11-06T16:51:51.050Z,8.65
2017-11-06T16:54:20.946Z,8.13
2017-11-06T16:56:50.586Z,7.65
2017-11-06T16:59:27.301Z,8.30
2017-11-06T17:01:59.406Z,7.72
2017-11-06T17:04:28.377Z,7.80
2017-11-06T17:06:56.399Z,9.25
2017-11-06T17:09:26.089Z,7.45
2017-11-06T17:11:58.889Z,6.53
2017-11-06T17:14:28.593Z,7.82
2017-11-06T17:17:00.817Z,7.45
2017-11-06T17:19:34.634Z,6.25
2017-11-06T17:22:02.645Z,6.20
2017-11-06T17:24:32.634Z,6.72
2017-11-06T17:27:04.305Z,6.87
2017-11-06T17:29:33.101Z,7.72
2017-11-06T17:32:05.442Z,6.32
2017-11-06T17:34:33.453Z,6.20
2017-11-06T17:37:01.470Z,6.68
2017-11-06T17:39:30.410Z,7.40
2017-11-06T17:42:00.330Z,6.87
2017-11-06T17:44:32.546Z,7.78
2017-11-06T17:47:00.566Z,6.82
2017-11-06T17:49:36.549Z,7.85
2017-11-06T17:52:04.566Z,8.10
2017-11-06T17:54:35.257Z,7.85
2017-11-06T17:57:07.550Z,5.93
2017-11-06T17:59:35.567Z,7.65
2017-11-06T18:02:04.497Z,6.85
2017-11-06T18:04:34.517Z,6.90
2017-11-06T18:07:04.537Z,6.45
2017-11-06T18:09:33.531Z,6.87
2017-11-06T18:12:02.509Z,6.32
2017-11-06T18:14:31.513Z,6.95
2017-11-06T18:17:05.217Z,5.95
2017-11-06T18:19:33.245Z,8.13
2017-11-06T18:22:04.729Z,7.93
2017-11-06T18:24:36.697Z,6.30
2017-11-06T18:27:09.461Z,7.47
2017-11-06T18:29:39.497Z,7.47
2017-11-06T18:32:11.845Z,7.35
2017-11-06T18:34:43.745Z,6.37
2017-11-06T18:37:20.195Z,7.62
2017-11-06T18:39:49.184Z,8.82
2017-11-06T18:42:22.889Z,7.53
2017-11-06T18:44:54.145Z,6.97
2017-11-06T18:47:22.178Z,7.05
2017-11-06T18:49:50.219Z,7.62
2017-11-06T18:52:18.261Z,8.05
2017-11-06T18:54:48.053Z,7.35
2017-11-06T18:57:31.324Z,7.32
2017-11-06T19:00:10.605Z,7.57
2017-11-06T19:02:38.649Z,7.82
2017-11-06T19:05:12.569Z,8.40
2017-11-06T19:07:40.609Z,8.02
2017-11-06T19:10:08.640Z,8.38
2017-11-06T19:12:38.645Z,8.00
2017-11-06T19:15:06.693Z,8.20
2017-11-06T19:17:35.745Z,8.30
2017-11-06T19:20:09.212Z,8.27
2017-11-06T19:22:38.212Z,8.80
2017-11-06T19:25:16.697Z,9.20
2017-11-06T19:27:47.971Z,9.30
2017-11-06T19:30:16.956Z,9.55
2017-11-06T19:32:54.001Z,8.35
2017-11-06T19:35:25.197Z,9.85
2017-11-06T19:37:59.725Z,9.38
2017-11-06T19:40:28.604Z,9.25
2017-11-06T19:42:58.649Z,9.15
2017-11-06T19:45:29.977Z,8.90
2017-11-06T19:48:07.668Z,9.70
2017-11-06T19:50:41.377Z,9.65
2017-11-06T19:53:12.072Z,9.38
2017-11-06T19:55:40.096Z,11.60
2017-11-06T19:58:10.097Z,8.27
2017-11-06T20:00:48.796Z,9.70
2017-11-06T20:03:16.848Z,9.68
2017-11-06T20:05:45.852Z,9.35
2017-11-06T20:08:14.664Z,9.00
2017-11-06T20:10:43.492Z,8.82
2017-11-06T20:13:15.324Z,9.48
2017-11-06T20:15:48.140Z,9.60
2017-11-06T20:18:16.176Z,10.13
2017-11-06T20:20:44.976Z,10.55
2017-11-06T20:23:13.024Z,9.18
2017-11-06T20:25:41.936Z,9.13
2017-11-06T20:28:09.973Z,9.68
2017-11-06T20:30:39.988Z,9.65
2017-11-06T20:33:20.232Z,9.70
2017-11-06T20:35:48.276Z,9.75
2017-11-06T20:38:16.364Z,10.45
2017-11-06T20:40:44.392Z,10.70
2017-11-06T20:43:13.423Z,9.40
2017-11-06T20:45:45.315Z,10.30
2017-11-06T20:48:16.044Z,9.75
2017-11-06T20:50:52.361Z,9.60
2017-11-06T20:53:20.400Z,9.75
2017-11-06T20:55:48.432Z,9.23
2017-11-06T20:58:16.477Z,10.00
2017-11-06T21:00:50.960Z,9.82
2017-11-06T21:03:25.936Z,10.52
2017-11-06T21:05:56.012Z,8.93
2017-11-06T21:08:24.048Z,9.82
2017-11-06T21:10:52.988Z,8.93
2017-11-06T21:13:22.968Z,8.90
2017-11-06T21:15:58.284Z,9.55
2017-11-06T21:18:31.884Z,10.35
2017-11-06T21:21:09.415Z,10.50
2017-11-06T21:23:47.192Z,9.60
2017-11-06T21:26:21.895Z,9.65
2017-11-06T21:28:49.939Z,8.85
2017-11-06T21:31:30.016Z,9.38
2017-11-06T21:33:58.044Z,8.70
2017-11-06T21:36:28.792Z,9.32
2017-11-06T21:39:00.804Z,9.52
2017-11-06T21:41:47.872Z,9.20
2017-11-06T21:44:28.688Z,9.00
2017-11-06T21:47:01.052Z,9.90
2017-11-06T21:49:39.552Z,8.88
2017-11-06T21:52:10.607Z,9.43
2017-11-06T21:54:44.211Z,9.38
2017-11-06T22:00:06.028Z,9.80
2017-11-06T22:02:37.192Z,9.27
2017-11-06T22:05:06.211Z,8.00
2017-11-06T22:07:36.919Z,9.82
2017-11-06T22:10:16.539Z,9.02
2017-11-06T22:12:44.568Z,10.07
2017-11-06T22:15:13.524Z,9.02
2017-11-06T22:17:45.195Z,9.18
2017-11-06T22:20:13.219Z,11.52
2017-11-06T22:22:45.848Z,10.98
2017-11-06T22:25:15.547Z,11.10
2017-11-06T22:27:43.575Z,10.30
2017-11-06T22:30:11.619Z,10.93
2017-11-06T22:32:39.648Z,11.10
2017-11-06T22:35:07.683Z,10.15
2017-11-06T22:37:35.731Z,11.88
2017-11-06T22:40:03.763Z,11.88
2017-11-06T22:42:32.067Z,10.90
2017-11-06T22:45:05.503Z,10.30
2017-11-06T22:47:34.511Z,11.30
2017-11-06T22:50:02.551Z,12.02
2017-11-06T22:52:30.596Z,11.43
2017-11-06T22:55:02.320Z,13.27
2017-11-06T22:57:36.828Z,9.88
2017-11-06T23:00:04.867Z,12.15
2017-11-06T23:02:32.907Z,11.02
2017-11-06T23:05:00.967Z,12.70
2017-11-06T23:07:30.767Z,13.62
2017-11-06T23:10:01.535Z,11.50
2017-11-06T23:12:35.095Z,12.00
2017-11-06T23:15:04.119Z,11.38
2017-11-06T23:17:42.171Z,11.77
2017-11-06T23:20:10.199Z,12.18
2017-11-06T23:22:38.227Z,13.00
2017-11-06T23:25:06.263Z,13.40
2017-11-06T23:27:36.247Z,16.80
2017-11-06T23:30:10.399Z,11.70
2017-11-06T23:32:39.426Z,12.13
2017-11-06T23:35:09.427Z,13.88
2017-11-06T23:37:42.322Z,14.55
2017-11-06T23:40:11.311Z,12.55
2017-11-06T23:42:39.382Z,12.75
2017-11-06T23:45:07.428Z,13.98
2017-11-06T23:47:35.450Z,12.93
2017-11-06T23:50:03.491Z,13.43
2017-11-06T23:52:36.922Z,12.10
2017-11-06T23:55:12.614Z,13.30
2017-11-06T23:57:47.683Z,12.13
